createdAt,value
2022-08-26T00:01:44.919Z,8.33
2022-08-26T00:04:12.618Z,6.60
2022-08-26T00:06:42.630Z,6.40
2022-08-26T00:09:16.106Z,6.70
2022-08-26T00:11:43.673Z,7.20
2022-08-26T00:14:10.410Z,7.93
2022-08-26T00:16:37.510Z,6.97
2022-08-26T00:19:08.126Z,6.80
2022-08-26T00:21:35.260Z,7.20
2022-08-26T00:24:04.692Z,6.97
2022-08-26T00:26:33.815Z,7.37
2022-08-26T00:29:00.676Z,7.20
2022-08-26T00:31:27.631Z,6.70
2022-08-26T00:33:54.821Z,7.27
2022-08-26T00:36:22.855Z,6.30
2022-08-26T00:38:50.192Z,5.67
2022-08-26T00:41:19.886Z,7.27
2022-08-26T00:43:47.888Z,7.53
2022-08-26T00:46:21.644Z,7.00
2022-08-26T00:48:53.584Z,6.83
2022-08-26T00:51:24.678Z,7.57
2022-08-26T00:54:04.239Z,7.47
2022-08-26T00:56:38.168Z,5.80
2022-08-26T00:59:08.371Z,7.23
2022-08-26T01:01:36.372Z,6.87
2022-08-26T01:04:04.345Z,11.50
2022-08-26T01:06:31.395Z,8.40
2022-08-26T01:08:58.207Z,7.57
2022-08-26T01:11:25.931Z,8.03
2022-08-26T01:13:55.939Z,7.67
2022-08-26T01:16:24.719Z,8.30
2022-08-26T01:18:57.097Z,7.80
2022-08-26T01:21:32.898Z,7.20
2022-08-26T01:24:00.145Z,7.33
2022-08-26T01:26:32.264Z,9.83
2022-08-26T01:29:01.340Z,12.27
2022-08-26T01:31:33.480Z,9.77
2022-08-26T01:34:10.819Z,8.53
2022-08-26T01:36:39.448Z,8.57
2022-08-26T01:39:07.300Z,9.40
2022-08-26T01:41:35.297Z,7.70
2022-08-26T01:44:04.975Z,8.80
2022-08-26T01:46:32.448Z,11.27
2022-08-26T01:49:03.815Z,9.40
2022-08-26T01:51:37.237Z,13.13
2022-08-26T01:54:06.477Z,12.90
2022-08-26T01:56:36.465Z,15.60
2022-08-26T01:59:07.279Z,8.37
2022-08-26T02:01:37.583Z,12.13
2022-08-26T02:04:17.378Z,8.13
2022-08-26T02:06:44.895Z,9.47
2022-08-26T02:09:12.410Z,8.70
2022-08-26T02:11:39.491Z,7.73
2022-08-26T02:14:16.963Z,8.17
2022-08-26T02:16:47.005Z,8.20
2022-08-26T02:19:17.704Z,9.30
2022-08-26T02:21:51.286Z,9.27
2022-08-26T02:24:27.578Z,8.10
2022-08-26T02:26:55.785Z,7.23
2022-08-26T02:29:35.198Z,8.13
2022-08-26T02:32:02.025Z,7.93
2022-08-26T02:34:33.311Z,7.20
2022-08-26T02:37:10.028Z,8.87
2022-08-26T02:39:38.234Z,7.77
2022-08-26T02:42:06.292Z,7.03
2022-08-26T02:44:33.211Z,8.27
2022-08-26T02:47:00.403Z,7.30
2022-08-26T02:49:28.320Z,8.00
2022-08-26T02:51:55.227Z,9.20
2022-08-26T02:54:22.864Z,13.50
2022-08-26T02:56:51.300Z,9.47
2022-08-26T02:59:18.387Z,10.90
2022-08-26T03:01:45.253Z,8.60
2022-08-26T03:04:12.850Z,9.80
2022-08-26T03:06:42.175Z,10.47
2022-08-26T03:09:09.783Z,10.50
2022-08-26T03:11:40.789Z,13.47
2022-08-26T03:14:07.649Z,9.90
2022-08-26T03:16:36.545Z,11.90
2022-08-26T03:19:05.422Z,14.37
2022-08-26T03:21:33.041Z,16.73
2022-08-26T03:24:00.419Z,11.37
2022-08-26T03:26:28.221Z,12.30
2022-08-26T03:29:14.973Z,13.20
2022-08-26T03:31:42.224Z,12.40
2022-08-26T03:34:09.805Z,15.00
2022-08-26T03:36:38.698Z,14.70
2022-08-26T03:39:06.339Z,13.97
2022-08-26T03:41:34.887Z,15.03
2022-08-26T03:44:02.455Z,12.73
2022-08-26T03:46:33.188Z,13.60
2022-08-26T03:49:02.060Z,16.80
2022-08-26T03:51:29.613Z,17.63
2022-08-26T03:53:58.958Z,19.00
2022-08-26T03:56:25.705Z,18.87
2022-08-26T03:58:53.099Z,17.60
2022-08-26T04:01:20.421Z,19.33
2022-08-26T04:04:00.883Z,19.47
2022-08-26T04:06:43.310Z,16.93
2022-08-26T04:09:18.534Z,15.67
2022-08-26T04:11:46.429Z,16.53
2022-08-26T04:14:20.566Z,15.10
2022-08-26T04:16:48.268Z,20.00
2022-08-26T04:19:16.587Z,24.43
2022-08-26T04:21:45.035Z,19.97
2022-08-26T04:24:15.589Z,24.60
2022-08-26T04:26:43.830Z,19.43
2022-08-26T04:29:21.023Z,18.53
2022-08-26T04:31:48.291Z,23.13
2022-08-26T04:34:16.203Z,24.57
2022-08-26T04:36:44.190Z,19.23
2022-08-26T04:39:12.721Z,19.57
2022-08-26T04:41:40.057Z,27.83
2022-08-26T04:44:07.797Z,29.13
2022-08-26T04:46:35.199Z,30.90
2022-08-26T04:49:08.514Z,34.10
2022-08-26T04:51:36.861Z,35.03
2022-08-26T04:54:04.388Z,39.10
2022-08-26T04:56:34.677Z,38.10
2022-08-26T04:59:03.207Z,41.13
2022-08-26T05:01:33.231Z,47.67
2022-08-26T05:04:08.221Z,54.70
2022-08-26T05:06:37.079Z,56.23
2022-08-26T05:09:04.428Z,56.37
2022-08-26T05:11:31.478Z,59.83
2022-08-26T05:14:02.178Z,55.77
2022-08-26T05:16:30.270Z,54.97
2022-08-26T05:18:57.470Z,60.83
2022-08-26T05:21:28.937Z,61.17
2022-08-26T05:23:56.436Z,66.80
2022-08-26T05:26:26.509Z,69.03
2022-08-26T05:28:54.953Z,68.23
2022-08-26T05:31:33.187Z,71.43
2022-08-26T05:34:03.673Z,71.90
2022-08-26T05:36:32.894Z,67.43
2022-08-26T05:39:01.501Z,71.47
2022-08-26T05:41:36.617Z,68.73
2022-08-26T05:44:08.528Z,67.80
2022-08-26T05:46:36.794Z,71.23
2022-08-26T05:49:06.534Z,73.40
2022-08-26T05:51:40.959Z,77.67
2022-08-26T05:54:07.847Z,80.27
2022-08-26T05:56:38.223Z,84.87
2022-08-26T05:59:05.545Z,74.37
2022-08-26T06:01:35.908Z,79.23
2022-08-26T06:04:03.111Z,77.43
2022-08-26T06:06:33.856Z,77.57
2022-08-26T06:09:03.668Z,72.30
2022-08-26T06:11:32.472Z,78.30
2022-08-26T06:14:03.759Z,79.70
2022-08-26T06:16:32.180Z,77.20
2022-08-26T06:18:58.956Z,76.90
2022-08-26T06:21:31.985Z,79.73
2022-08-26T06:24:21.243Z,80.83
2022-08-26T06:26:57.406Z,69.13
2022-08-26T06:29:26.154Z,72.90
2022-08-26T06:31:54.209Z,75.20
2022-08-26T06:34:23.914Z,73.37
2022-08-26T06:37:02.384Z,66.40
2022-08-26T06:39:31.028Z,60.30
2022-08-26T06:41:58.930Z,63.50
2022-08-26T06:44:26.773Z,65.13
2022-08-26T06:46:53.646Z,57.83
2022-08-26T06:49:27.240Z,58.13
2022-08-26T06:51:58.091Z,61.33
2022-08-26T06:54:25.526Z,61.93
2022-08-26T06:56:52.378Z,62.03
2022-08-26T06:59:19.244Z,61.43
2022-08-26T07:01:46.597Z,63.93
2022-08-26T07:04:20.211Z,58.03
2022-08-26T07:06:52.457Z,56.70
2022-08-26T07:09:25.387Z,58.70
2022-08-26T07:11:56.088Z,56.77
2022-08-26T07:14:24.949Z,61.67
2022-08-26T07:16:53.284Z,58.67
2022-08-26T07:19:28.541Z,60.20
2022-08-26T07:22:03.535Z,61.60
2022-08-26T07:24:31.240Z,57.47
2022-08-26T07:27:05.604Z,53.77
2022-08-26T07:29:33.198Z,59.87
2022-08-26T07:32:00.053Z,55.23
2022-08-26T07:34:27.328Z,57.00
2022-08-26T07:36:54.087Z,63.93
2022-08-26T07:39:22.836Z,53.03
2022-08-26T07:41:49.826Z,54.30
2022-08-26T07:44:16.794Z,55.53
2022-08-26T07:46:44.402Z,56.50
2022-08-26T07:49:19.601Z,60.73
2022-08-26T07:51:46.539Z,55.63
2022-08-26T07:54:14.435Z,53.70
2022-08-26T07:56:41.206Z,54.70
2022-08-26T07:59:13.514Z,60.47
2022-08-26T08:01:41.414Z,57.60
2022-08-26T08:04:17.204Z,57.17
2022-08-26T08:06:45.690Z,57.10
2022-08-26T08:09:14.830Z,51.77
2022-08-26T08:11:44.702Z,51.30
2022-08-26T08:14:12.194Z,54.67
2022-08-26T08:16:45.838Z,50.70
2022-08-26T08:19:14.823Z,49.63
2022-08-26T08:21:42.659Z,56.63
2022-08-26T08:24:10.953Z,51.87
2022-08-26T08:26:37.984Z,53.27
2022-08-26T08:29:05.983Z,54.30
2022-08-26T08:34:21.521Z,55.00
2022-08-26T08:36:49.538Z,54.30
2022-08-26T08:39:17.384Z,52.43
2022-08-26T08:41:47.231Z,51.13
2022-08-26T08:44:20.043Z,50.13
2022-08-26T08:47:17.763Z,46.83
2022-08-26T08:49:45.026Z,49.33
2022-08-26T08:52:29.648Z,49.67
2022-08-26T08:54:57.159Z,48.17
2022-08-26T08:57:53.684Z,46.23
2022-08-26T09:00:30.204Z,45.87
2022-08-26T09:03:14.536Z,48.00
2022-08-26T09:05:48.789Z,44.87
2022-08-26T09:08:21.603Z,44.50
2022-08-26T09:10:54.041Z,49.90
2022-08-26T09:13:24.977Z,40.43
2022-08-26T09:16:08.320Z,41.33
2022-08-26T09:19:05.955Z,42.37
2022-08-26T09:21:33.251Z,44.57
2022-08-26T09:24:00.645Z,40.90
2022-08-26T09:26:42.474Z,43.07
2022-08-26T09:29:27.725Z,44.53
2022-08-26T09:32:24.881Z,42.43
2022-08-26T09:34:54.783Z,43.03
2022-08-26T09:37:36.203Z,42.10
2022-08-26T09:40:27.564Z,38.50
2022-08-26T09:43:16.039Z,38.23
2022-08-26T09:45:59.276Z,41.13
2022-08-26T09:48:34.851Z,37.73
2022-08-26T09:51:07.041Z,40.07
2022-08-26T09:53:49.449Z,43.80
2022-08-26T09:56:26.038Z,42.47
2022-08-26T09:58:56.620Z,41.10
2022-08-26T10:01:23.421Z,44.30
2022-08-26T10:03:51.407Z,43.27
2022-08-26T10:06:18.203Z,44.47
2022-08-26T10:09:08.335Z,48.63
2022-08-26T10:12:00.164Z,44.43
2022-08-26T10:14:36.993Z,43.73
2022-08-26T10:17:11.139Z,48.83
2022-08-26T10:19:58.519Z,45.87
2022-08-26T10:22:27.968Z,46.60
2022-08-26T10:25:00.942Z,42.50
2022-08-26T10:27:51.172Z,42.70
2022-08-26T10:30:23.644Z,42.30
2022-08-26T10:33:02.238Z,42.13
2022-08-26T10:35:30.831Z,40.60
2022-08-26T10:38:19.685Z,38.73
2022-08-26T10:41:09.737Z,34.80
2022-08-26T10:43:40.963Z,37.37
2022-08-26T10:46:17.085Z,36.13
2022-08-26T10:48:56.417Z,37.53
2022-08-26T10:51:32.068Z,38.90
2022-08-26T10:54:13.061Z,40.47
2022-08-26T10:57:00.031Z,39.93
2022-08-26T10:59:29.404Z,39.63
2022-08-26T11:02:24.914Z,38.20
2022-08-26T11:05:05.598Z,39.07
2022-08-26T11:07:58.428Z,38.70
2022-08-26T11:10:25.260Z,32.70
2022-08-26T11:13:06.947Z,30.40
2022-08-26T11:15:36.732Z,31.70
2022-08-26T11:18:29.785Z,32.67
2022-08-26T11:20:57.268Z,32.33
2022-08-26T11:23:23.974Z,37.03
2022-08-26T11:25:57.150Z,34.97
2022-08-26T11:28:44.265Z,31.63
2022-08-26T11:31:26.929Z,30.20
2022-08-26T11:33:57.035Z,31.80
2022-08-26T11:36:49.032Z,29.07
2022-08-26T11:39:28.575Z,27.23
2022-08-26T11:42:00.085Z,26.00
2022-08-26T11:44:37.290Z,25.60
2022-08-26T11:47:07.968Z,26.83
2022-08-26T11:49:38.700Z,27.23
2022-08-26T11:52:22.007Z,23.77
2022-08-26T11:55:03.946Z,30.03
2022-08-26T11:57:34.443Z,29.80
2022-08-26T12:00:02.839Z,26.07
2022-08-26T12:02:29.728Z,23.23
2022-08-26T12:04:56.898Z,23.90
2022-08-26T12:07:28.074Z,19.30
2022-08-26T12:09:59.063Z,18.93
2022-08-26T12:12:35.063Z,19.93
2022-08-26T12:15:16.519Z,23.90
2022-08-26T12:17:48.532Z,22.80
2022-08-26T12:20:30.114Z,22.43
2022-08-26T12:22:58.887Z,24.90
2022-08-26T12:25:26.420Z,30.27
2022-08-26T12:27:54.011Z,20.77
2022-08-26T12:30:26.192Z,20.67
2022-08-26T12:33:22.089Z,22.50
2022-08-26T12:35:52.858Z,25.00
2022-08-26T12:38:22.365Z,20.97
2022-08-26T12:40:50.271Z,19.97
2022-08-26T12:43:43.962Z,22.57
2022-08-26T12:46:13.659Z,20.10
2022-08-26T12:48:43.937Z,23.40
2022-08-26T12:51:26.497Z,18.60
2022-08-26T12:53:54.212Z,16.03
2022-08-26T12:56:34.006Z,17.67
2022-08-26T12:59:24.373Z,16.30
2022-08-26T13:01:52.799Z,15.73
2022-08-26T13:04:42.539Z,12.47
2022-08-26T13:07:36.550Z,16.97
2022-08-26T13:10:03.804Z,19.70
2022-08-26T13:12:33.745Z,15.60
2022-08-26T13:15:02.035Z,12.80
2022-08-26T13:17:29.899Z,11.97
2022-08-26T13:20:03.262Z,23.77
2022-08-26T13:22:30.960Z,11.87
2022-08-26T13:24:57.887Z,14.47
2022-08-26T13:27:27.108Z,10.20
2022-08-26T13:29:54.963Z,15.33
2022-08-26T13:32:27.206Z,12.70
2022-08-26T13:34:56.096Z,10.43
2022-08-26T13:37:29.300Z,17.70
2022-08-26T13:40:01.724Z,11.60
2022-08-26T13:42:29.320Z,11.10
2022-08-26T13:44:58.130Z,14.37
2022-08-26T13:47:25.967Z,9.33
2022-08-26T13:49:54.750Z,14.10
2022-08-26T13:52:25.606Z,11.43
2022-08-26T13:54:58.796Z,15.40
2022-08-26T13:57:27.893Z,14.73
2022-08-26T13:59:56.453Z,11.40
2022-08-26T14:02:23.443Z,9.93
2022-08-26T14:04:50.225Z,11.60
2022-08-26T14:07:17.423Z,11.57
2022-08-26T14:09:44.146Z,13.17
2022-08-26T14:12:10.897Z,11.03
2022-08-26T14:14:37.644Z,8.47
2022-08-26T14:17:04.489Z,9.23
2022-08-26T14:19:31.917Z,10.27
2022-08-26T14:22:00.795Z,8.20
2022-08-26T14:24:28.815Z,13.83
2022-08-26T14:26:55.585Z,7.33
2022-08-26T14:29:22.394Z,12.87
2022-08-26T14:31:49.204Z,11.43
2022-08-26T14:34:16.078Z,16.30
2022-08-26T14:36:43.446Z,10.87
2022-08-26T14:39:13.181Z,10.03
2022-08-26T14:41:54.107Z,9.10
2022-08-26T14:44:27.678Z,8.40
2022-08-26T14:46:54.881Z,9.60
2022-08-26T14:49:24.196Z,9.73
2022-08-26T14:51:51.065Z,7.83
2022-08-26T14:54:19.768Z,13.27
2022-08-26T14:56:46.574Z,12.00
2022-08-26T14:59:16.507Z,8.17
2022-08-26T15:01:43.848Z,10.53
2022-08-26T15:04:10.698Z,8.50
2022-08-26T15:06:38.123Z,8.73
2022-08-26T15:09:06.018Z,8.80
2022-08-26T15:11:33.111Z,13.00
2022-08-26T15:14:00.251Z,8.20
2022-08-26T15:16:28.693Z,8.50
2022-08-26T15:18:56.092Z,8.40
2022-08-26T15:21:24.062Z,8.80
2022-08-26T15:23:52.050Z,7.53
2022-08-26T15:26:20.274Z,10.33
2022-08-26T15:28:47.424Z,9.00
2022-08-26T15:31:14.389Z,7.63
2022-08-26T15:33:41.255Z,8.00
2022-08-26T15:36:08.772Z,8.10
2022-08-26T15:38:40.178Z,6.47
2022-08-26T15:41:08.735Z,8.10
2022-08-26T15:43:37.247Z,13.10
2022-08-26T15:46:04.297Z,10.17
2022-08-26T15:48:31.140Z,13.93
2022-08-26T15:51:00.504Z,5.13
2022-08-26T15:53:30.140Z,9.63
2022-08-26T15:55:58.451Z,7.43
2022-08-26T15:58:26.388Z,8.63
2022-08-26T16:00:54.971Z,7.80
2022-08-26T16:03:22.512Z,6.93
2022-08-26T16:05:49.546Z,7.03
2022-08-26T16:08:18.005Z,8.23
2022-08-26T16:10:50.443Z,5.60
2022-08-26T16:13:20.095Z,4.87
2022-08-26T16:15:47.859Z,10.90
2022-08-26T16:18:15.771Z,6.40
2022-08-26T16:21:02.865Z,11.83
2022-08-26T16:23:38.367Z,11.63
2022-08-26T16:26:14.174Z,9.50
2022-08-26T16:28:41.384Z,11.73
2022-08-26T16:31:10.665Z,8.30
2022-08-26T16:33:37.909Z,8.60
2022-08-26T16:36:06.041Z,9.00
2022-08-26T16:38:33.755Z,7.30
2022-08-26T16:41:01.108Z,8.10
2022-08-26T16:43:28.497Z,6.53
2022-08-26T16:45:55.977Z,8.57
2022-08-26T16:48:23.546Z,6.60
2022-08-26T16:50:51.099Z,6.97
2022-08-26T16:53:18.853Z,11.07
2022-08-26T16:55:47.271Z,7.87
2022-08-26T16:58:14.667Z,9.40
2022-08-26T17:00:41.490Z,7.30
2022-08-26T17:03:09.031Z,6.40
2022-08-26T17:05:36.281Z,9.23
2022-08-26T17:08:04.310Z,6.43
2022-08-26T17:10:32.227Z,11.47
2022-08-26T17:12:59.062Z,9.53
2022-08-26T17:15:26.197Z,11.93
2022-08-26T17:17:54.312Z,8.03
2022-08-26T17:20:23.645Z,12.57
2022-08-26T17:22:52.314Z,7.57
2022-08-26T17:25:29.467Z,7.77
2022-08-26T17:30:29.812Z,8.33
2022-08-26T17:32:57.954Z,10.47
2022-08-26T17:35:24.919Z,8.00
2022-08-26T17:37:52.690Z,12.93
2022-08-26T17:40:22.275Z,13.13
2022-08-26T17:42:49.708Z,5.90
2022-08-26T17:45:16.773Z,7.30
2022-08-26T17:47:44.520Z,6.37
2022-08-26T17:50:14.571Z,6.90
2022-08-26T17:52:42.091Z,8.23
2022-08-26T17:55:10.332Z,5.77
2022-08-26T17:57:40.960Z,5.93
2022-08-26T18:00:15.135Z,7.00
2022-08-26T18:02:42.291Z,6.07
2022-08-26T18:05:11.513Z,6.70
2022-08-26T18:07:43.811Z,11.43
2022-08-26T18:10:13.527Z,6.50
2022-08-26T18:12:41.329Z,8.17
2022-08-26T18:15:10.203Z,4.87
2022-08-26T18:17:39.033Z,5.90
2022-08-26T18:20:08.791Z,8.20
2022-08-26T18:22:35.646Z,13.73
2022-08-26T18:25:04.833Z,7.90
2022-08-26T18:27:31.682Z,10.33
2022-08-26T18:29:58.746Z,8.47
2022-08-26T18:32:25.508Z,6.50
2022-08-26T18:34:52.308Z,5.70
2022-08-26T18:37:19.136Z,6.00
2022-08-26T18:39:45.899Z,7.17
2022-08-26T18:42:12.934Z,6.13
2022-08-26T18:44:39.869Z,3.60
2022-08-26T18:47:07.371Z,4.50
2022-08-26T18:49:35.004Z,7.43
2022-08-26T18:52:01.818Z,5.27
2022-08-26T18:54:29.933Z,4.63
2022-08-26T18:56:56.755Z,5.70
2022-08-26T18:59:26.771Z,8.70
2022-08-26T19:01:57.381Z,4.70
2022-08-26T19:04:24.550Z,6.37
2022-08-26T19:06:52.497Z,4.67
2022-08-26T19:09:19.738Z,3.93
2022-08-26T19:11:49.684Z,4.87
2022-08-26T19:14:16.903Z,6.40
2022-08-26T19:16:47.324Z,5.83
2022-08-26T19:19:14.967Z,3.60
2022-08-26T19:21:41.831Z,4.47
2022-08-26T19:24:15.706Z,5.47
2022-08-26T19:26:47.930Z,6.47
2022-08-26T19:29:15.572Z,6.47
2022-08-26T19:31:43.156Z,4.80
2022-08-26T19:34:11.730Z,5.17
2022-08-26T19:36:39.355Z,5.77
2022-08-26T19:39:09.865Z,4.60
2022-08-26T19:41:38.757Z,6.33
2022-08-26T19:44:12.838Z,6.77
2022-08-26T19:46:39.869Z,6.03
2022-08-26T19:49:06.857Z,5.50
2022-08-26T19:51:35.692Z,10.20
2022-08-26T19:54:03.132Z,4.77
2022-08-26T19:56:30.296Z,6.90
2022-08-26T19:58:57.290Z,4.93
2022-08-26T20:01:24.975Z,3.30
2022-08-26T20:03:51.983Z,5.03
2022-08-26T20:06:20.008Z,3.30
2022-08-26T20:08:47.687Z,6.40
2022-08-26T20:11:18.728Z,4.10
2022-08-26T20:13:46.855Z,7.10
2022-08-26T20:16:14.163Z,6.33
2022-08-26T20:19:00.531Z,6.07
2022-08-26T20:21:29.243Z,7.97
2022-08-26T20:23:59.357Z,5.43
2022-08-26T20:26:28.818Z,4.80
2022-08-26T20:28:55.756Z,3.90
2022-08-26T20:31:23.270Z,7.20
2022-08-26T20:33:51.621Z,7.47
2022-08-26T20:36:23.096Z,6.40
2022-08-26T20:38:50.719Z,7.33
2022-08-26T20:41:17.557Z,4.87
2022-08-26T20:43:45.083Z,6.23
2022-08-26T20:46:18.156Z,3.80
2022-08-26T20:48:46.265Z,8.13
2022-08-26T20:51:13.066Z,8.43
2022-08-26T20:53:39.867Z,7.07
2022-08-26T20:56:09.033Z,4.70
2022-08-26T20:58:37.086Z,5.10
2022-08-26T21:01:07.808Z,7.63
2022-08-26T21:03:35.791Z,6.20
2022-08-26T21:06:03.570Z,8.33
2022-08-26T21:08:30.861Z,8.20
2022-08-26T21:11:00.417Z,6.37
2022-08-26T21:13:35.823Z,4.93
2022-08-26T21:16:11.461Z,7.60
2022-08-26T21:18:38.959Z,5.63
2022-08-26T21:21:07.960Z,4.50
2022-08-26T21:23:36.119Z,6.83
2022-08-26T21:26:05.849Z,8.77
2022-08-26T21:28:34.142Z,9.87
2022-08-26T21:31:08.276Z,7.83
2022-08-26T21:33:35.894Z,7.50
2022-08-26T21:36:03.670Z,4.43
2022-08-26T21:38:31.250Z,5.47
2022-08-26T21:41:08.332Z,8.30
2022-08-26T21:43:36.622Z,13.50
2022-08-26T21:46:12.554Z,9.60
2022-08-26T21:48:50.530Z,8.43
2022-08-26T21:51:20.644Z,5.53
2022-08-26T21:53:47.991Z,9.03
2022-08-26T21:56:16.901Z,6.10
2022-08-26T21:58:44.102Z,11.80
2022-08-26T22:01:17.493Z,7.33
2022-08-26T22:03:47.568Z,6.30
2022-08-26T22:06:16.684Z,6.50
2022-08-26T22:08:43.795Z,12.17
2022-08-26T22:11:10.927Z,6.23
2022-08-26T22:13:39.702Z,4.57
2022-08-26T22:16:06.884Z,5.10
2022-08-26T22:18:34.557Z,5.00
2022-08-26T22:21:04.562Z,7.57
2022-08-26T22:23:31.739Z,6.50
2022-08-26T22:25:59.160Z,5.30
2022-08-26T22:28:26.160Z,4.73
2022-08-26T22:30:53.270Z,4.47
2022-08-26T22:33:20.078Z,4.83
2022-08-26T22:35:49.460Z,4.20
2022-08-26T22:38:17.059Z,4.47
2022-08-26T22:40:46.222Z,5.83
2022-08-26T22:43:13.900Z,5.77
2022-08-26T22:45:43.384Z,5.80
2022-08-26T22:48:11.774Z,4.67
2022-08-26T22:50:39.026Z,6.27
2022-08-26T22:53:05.784Z,6.67
2022-08-26T22:55:32.693Z,4.63
2022-08-26T22:58:00.089Z,4.80
2022-08-26T23:00:32.080Z,7.50
2022-08-26T23:03:00.098Z,5.87
2022-08-26T23:05:27.365Z,4.90
2022-08-26T23:07:56.149Z,6.30
2022-08-26T23:10:24.036Z,5.00
2022-08-26T23:12:52.339Z,6.70
2022-08-26T23:15:20.247Z,5.60
2022-08-26T23:17:47.786Z,6.50
2022-08-26T23:20:23.962Z,5.43
2022-08-26T23:22:50.780Z,7.07
2022-08-26T23:25:17.569Z,6.20
2022-08-26T23:27:44.755Z,6.47
2022-08-26T23:30:16.174Z,5.80
2022-08-26T23:32:42.987Z,6.10
2022-08-26T23:35:10.578Z,8.20
2022-08-26T23:37:46.134Z,17.00
2022-08-26T23:40:32.121Z,6.27
2022-08-26T23:43:03.311Z,7.43
2022-08-26T23:45:30.527Z,7.43
2022-08-26T23:47:57.674Z,7.60
2022-08-26T23:50:47.356Z,6.80
2022-08-26T23:53:19.468Z,8.60
2022-08-26T23:55:52.003Z,7.30
2022-08-26T23:58:20.660Z,7.00
